Time;durP1;ratioP1;P1;durP2;ratioP2;P2;SDS_P1;SDS_P2;PMS_P1;PMS_P2;Temp;Humidity;BMP_temperature;BMP_pressure;BME280_temperature;BME280_humidity;BME280_pressure;Samples;Min_cycle;Max_cycle;Signal;HPM_P1;HPM_P2
2022/10/15 00:00:37;;;;;;;;;;;;;;;;;;8412344;27;27979;-75
2022/10/15 00:04:37;;;;;;;;;;;;;;;;;;8411501;28;27301;-77
2022/10/15 00:08:37;;;;;;;;;;;;;;;;;;8410471;27;28138;-75
2022/10/15 00:12:37;;;;;;;;;;;;;;;;;;8412663;28;27960;-77
2022/10/15 00:16:38;;;;;;;;;;;;;;;;;;8411329;28;27471;-76
2022/10/15 00:20:38;;;;;;;;;;;;;;;;;;8423965;27;29177;-75
2022/10/15 00:24:38;;;;;;;;;;;;;;;;;;8410696;27;28374;-77
2022/10/15 00:28:38;;;;;;;;;;;;;;;;;;8409428;28;27569;-77
2022/10/15 00:32:38;;;;;;;;;;;;;;;;;;8411819;27;28080;-77
2022/10/15 00:36:38;;;;;;;;;;;;;;;;;;8416097;28;27299;-76
2022/10/15 00:40:39;;;;;;;;;;;;;;;;;;8412076;28;28151;-76
2022/10/15 00:44:39;;;;;;;;;;;;;;;;;;8411819;27;28615;-77
2022/10/15 00:48:39;;;;;;;;;;;;;;;;;;8410165;28;27313;-75
2022/10/15 00:52:39;;;;;;;;;;;;;;;;;;8408691;28;27160;-76
2022/10/15 00:56:39;;;;;;;;;;;;;;;;;;8409164;28;27349;-76
2022/10/15 01:00:39;;;;;;;;;;;;;;;;;;8412360;27;28105;-76
2022/10/15 01:04:39;;;;;;;;;;;;;;;;;;8409694;27;46343;-76
2022/10/15 01:08:40;;;;;;;;;;;;;;;;;;8407845;28;28491;-77
2022/10/15 01:12:40;;;;;;;;;;;;;;;;;;8423434;27;28807;-76
2022/10/15 01:16:40;;;;;;;;;;;;;;;;;;8406757;27;27797;-76
2022/10/15 01:20:40;;;;;;;;;;;;;;;;;;8410524;27;28170;-76
2022/10/15 01:24:40;;;;;;;;;;;;;;;;;;8412171;28;27993;-76
2022/10/15 01:28:40;;;;;;;;;;;;;;;;;;8410302;27;27778;-77
2022/10/15 01:32:40;;;;;;;;;;;;;;;;;;8399261;27;28217;-77
2022/10/15 01:36:41;;;;;;;;;;;;;;;;;;8388943;28;29649;-78
2022/10/15 01:40:41;;;;;;;;;;;;;;;;;;8406106;28;28155;-75
2022/10/15 01:44:41;;;;;;;;;;;;;;;;;;8410004;27;27117;-77
2022/10/15 01:48:41;;;;;;;;;;;;;;;;;;8406082;28;28152;-76
2022/10/15 01:52:41;;;;;;;;;;;;;;;;;;8408861;28;27339;-76
2022/10/15 01:56:45;;;;;;;;;;;;;;;;;;8407805;28;27622;-78
2022/10/15 02:00:45;;;;;;;;;;;;;;;;;;8426991;27;28280;-78
2022/10/15 02:04:45;;;;;;;;;;;;;;;;;;8397303;28;28256;-75
2022/10/15 02:08:46;;;;;;;;;;;;;;;;;;8424109;27;28805;-76
2022/10/15 02:12:46;;;;;;;;;;;;;;;;;;8406488;28;29198;-76
2022/10/15 02:16:46;;;;;;;;;;;;;;;;;;8410053;28;27455;-75
2022/10/15 02:20:46;;;;;;;;;;;;;;;;;;8408172;28;27280;-75
2022/10/15 02:24:46;;;;;;;;;;;;;;;;;;8428398;27;28803;-76
2022/10/15 02:28:46;;;;;;;;;;;;;;;;;;8415421;28;27475;-75
2022/10/15 02:32:46;;;;;;;;;;;;;;;;;;8415194;27;28144;-75
2022/10/15 02:36:47;;;;;;;;;;;;;;;;;;8411934;27;28154;-75
2022/10/15 02:40:47;;;;;;;;;;;;;;;;;;8412565;27;27465;-74
2022/10/15 02:44:47;;;;;;;;;;;;;;;;;;8410334;27;28158;-76
2022/10/15 02:48:47;;;;;;;;;;;;;;;;;;8409468;27;29009;-75
2022/10/15 02:52:47;;;;;;;;;;;;;;;;;;8416751;28;28712;-75
2022/10/15 02:56:47;;;;;;;;;;;;;;;;;;8414638;27;28130;-77
2022/10/15 03:00:48;;;;;;;;;;;;;;;;;;8419765;27;27487;-76
2022/10/15 03:04:48;;;;;;;;;;;;;;;;;;8415042;27;28363;-75
2022/10/15 03:08:48;;;;;;;;;;;;;;;;;;8432633;27;27457;-75
2022/10/15 03:12:48;;;;;;;;;;;;;;;;;;8445987;28;27459;-77
2022/10/15 03:16:48;;;;;;;;;;;;;;;;;;8449455;28;27054;-76
2022/10/15 03:20:48;;;;;;;;;;;;;;;;;;8448334;27;28120;-76
2022/10/15 03:24:48;;;;;;;;;;;;;;;;;;8450674;28;28476;-75
2022/10/15 03:28:49;;;;;;;;;;;;;;;;;;8455733;27;28439;-75
2022/10/15 03:32:49;;;;;;;;;;;;;;;;;;8454796;28;27420;-77
2022/10/15 03:36:49;;;;;;;;;;;;;;;;;;8444822;28;27331;-76
2022/10/15 03:40:49;;;;;;;;;;;;;;;;;;8415882;28;28302;-76
2022/10/15 03:44:49;;;;;;;;;;;;;;;;;;8416014;28;27491;-76
2022/10/15 03:48:49;;;;;;;;;;;;;;;;;;8415541;28;28094;-76
2022/10/15 03:52:49;;;;;;;;;;;;;;;;;;8427206;27;28541;-76
2022/10/15 03:56:50;;;;;;;;;;;;;;;;;;8425798;27;28604;-76
2022/10/15 04:00:50;;;;;;;;;;;;;;;;;;8411971;28;27389;-76
2022/10/15 04:04:50;;;;;;;;;;;;;;;;;;8401809;28;28672;-76
2022/10/15 04:08:50;;;;;;;;;;;;;;;;;;8411748;27;28461;-76
2022/10/15 04:12:50;;;;;;;;;;;;;;;;;;8415034;28;27310;-75
2022/10/15 04:16:50;;;;;;;;;;;;;;;;;;8412618;28;28175;-75
2022/10/15 04:20:50;;;;;;;;;;;;;;;;;;8427341;27;28712;-76
2022/10/15 04:24:50;;;;;;;;;;;;;;;;;;8407725;28;28272;-75
2022/10/15 04:28:51;;;;;;;;;;;;;;;;;;8411599;28;27387;-76
2022/10/15 04:32:51;;;;;;;;;;;;;;;;;;8427261;27;29186;-77
2022/10/15 04:36:51;;;;;;;;;;;;;;;;;;8411504;28;27289;-76
2022/10/15 04:40:51;;;;;;;;;;;;;;;;;;8413703;27;27429;-77
2022/10/15 04:44:52;;;;;;;;;;;;;;;;;;8411399;27;28146;-76
2022/10/15 04:48:53;;;;;;;;;;;;;;;;;;8410330;28;27971;-75
2022/10/15 04:52:54;;;;;;;;;;;;;;;;;;8430764;27;28401;-75
2022/10/15 04:56:54;;;;;;;;;;;;;;;;;;8398654;28;28171;-77
2022/10/15 05:00:54;;;;;;;;;;;;;;;;;;8410039;27;28572;-75
2022/10/15 05:04:54;;;;;;;;;;;;;;;;;;8408689;28;27394;-76
2022/10/15 05:08:57;;;;;;;;;;;;;;;;;;8395004;28;29246;-76
2022/10/15 05:12:57;;;;;;;;;;;;;;;;;;8394150;27;28651;-75
2022/10/15 05:16:57;;;;;;;;;;;;;;;;;;8404386;27;28605;-76
2022/10/15 05:20:57;;;;;;;;;;;;;;;;;;8411387;28;27757;-76
2022/10/15 05:24:57;;;;;;;;;;;;;;;;;;8414321;28;27553;-77
2022/10/15 05:28:57;;;;;;;;;;;;;;;;;;8410345;28;28274;-76
2022/10/15 05:32:58;;;;;;;;;;;;;;;;;;8409461;28;28193;-76
2022/10/15 05:36:58;;;;;;;;;;;;;;;;;;8397517;28;29434;-77
2022/10/15 05:40:59;;;;;;;;;;;;;;;;;;8405483;28;47294;-75
2022/10/15 05:44:59;;;;;;;;;;;;;;;;;;8410667;28;27339;-76
2022/10/15 05:48:59;;;;;;;;;;;;;;;;;;8399296;27;28577;-75
2022/10/15 05:52:59;;;;;;;;;;;;;;;;;;8412188;27;28833;-77
2022/10/15 05:56:59;;;;;;;;;;;;;;;;;;8420236;27;28576;-78
2022/10/15 06:01:00;;;;;;;;;;;;;;;;;;8412784;28;29094;-78
2022/10/15 06:05:00;;;;;;;;;;;;;;;;;;8414546;28;27574;-77
2022/10/15 06:09:00;;;;;;;;;;;;;;;;;;8411492;28;27167;-76
2022/10/15 06:13:00;;;;;;;;;;;;;;;;;;8409062;28;27269;-77
2022/10/15 06:17:01;;;;;;;;;;;;;;;;;;8417030;28;28737;-79
2022/10/15 06:21:01;;;;;;;;;;;;;;;;;;8418429;28;28614;-78
2022/10/15 06:25:01;;;;;;;;;;;;;;;;;;8416345;28;27456;-78
2022/10/15 06:29:01;;;;;;;;;;;;;;;;;;8413632;28;28465;-78
2022/10/15 06:33:01;;;;;;;;;;;;;;;;;;8408718;28;28070;-78
2022/10/15 06:37:01;;;;;;;;;;;;;;;;;;8401958;28;28769;-78
2022/10/15 06:41:01;;;;;;;;;;;;;;;;;;8403849;28;28173;-77
2022/10/15 06:45:02;;;;;;;;;;;;;;;;;;8415328;27;29192;-77
2022/10/15 06:49:02;;;;;;;;;;;;;;;;;;8409376;27;28246;-78
2022/10/15 06:53:03;;;;;;;;;;;;;;;;;;8416672;27;28991;-76
2022/10/15 06:57:03;;;;;;;;;;;;;;;;;;8414868;27;27513;-77
2022/10/15 07:01:03;;;;;;;;;;;;;;;;;;8421794;27;27473;-78
2022/10/15 07:05:03;;;;;;;;;;;;;;;;;;8416982;27;28027;-77
2022/10/15 07:09:04;;;;;;;;;;;;;;;;;;8408471;27;27564;-79
2022/10/15 07:13:04;;;;;;;;;;;;;;;;;;8409953;28;28642;-77
2022/10/15 07:17:04;;;;;;;;;;;;;;;;;;8406074;28;27392;-76
2022/10/15 07:21:04;;;;;;;;;;;;;;;;;;8428263;27;27147;-76
2022/10/15 07:25:04;;;;;;;;;;;;;;;;;;8412691;28;28017;-76
2022/10/15 07:29:05;;;;;;;;;;;;;;;;;;8420438;28;29298;-76
2022/10/15 07:33:05;;;;;;;;;;;;;;;;;;8416639;28;27265;-78
2022/10/15 07:37:05;;;;;;;;;;;;;;;;;;8419950;28;27555;-78
2022/10/15 07:41:05;;;;;;;;;;;;;;;;;;8418663;28;28257;-77
2022/10/15 07:45:05;;;;;;;;;;;;;;;;;;8417924;28;27322;-78
2022/10/15 07:49:05;;;;;;;;;;;;;;;;;;8416580;28;27432;-77
2022/10/15 07:53:05;;;;;;;;;;;;;;;;;;8408548;27;28185;-77
2022/10/15 07:57:06;;;;;;;;;;;;;;;;;;8411314;28;27495;-77
2022/10/15 08:01:06;;;;;;;;;;;;;;;;;;8416137;28;28224;-76
2022/10/15 08:05:06;;;;;;;;;;;;;;;;;;8415772;28;27767;-76
2022/10/15 08:09:06;;;;;;;;;;;;;;;;;;8410925;28;27381;-76
2022/10/15 08:13:06;;;;;;;;;;;;;;;;;;8398106;28;28317;-76
2022/10/15 08:17:07;;;;;;;;;;;;;;;;;;8414715;28;27548;-76
2022/10/15 08:21:07;;;;;;;;;;;;;;;;;;8414733;27;28099;-77
2022/10/15 08:25:07;;;;;;;;;;;;;;;;;;8411253;28;28489;-78
2022/10/15 08:29:07;;;;;;;;;;;;;;;;;;8413486;28;28133;-77
2022/10/15 08:33:07;;;;;;;;;;;;;;;;;;8415808;27;27873;-76
2022/10/15 08:37:08;;;;;;;;;;;;;;;;;;8414877;28;27240;-77
2022/10/15 08:41:08;;;;;;;;;;;;;;;;;;8417397;28;28591;-77
2022/10/15 08:45:08;;;;;;;;;;;;;;;;;;8438527;28;29067;-77
2022/10/15 08:49:08;;;;;;;;;;;;;;;;;;8444119;28;27021;-78
2022/10/15 08:53:08;;;;;;;;;;;;;;;;;;8449537;27;27726;-76
2022/10/15 08:57:08;;;;;;;;;;;;;;;;;;8451271;28;27028;-76
2022/10/15 09:01:08;;;;;;;;;;;;;;;;;;8452516;28;27309;-77
2022/10/15 09:05:09;;;;;;;;;;;;;;;;;;8448890;27;28223;-78
2022/10/15 09:09:09;;;;;;;;;;;;;;;;;;8446895;28;28588;-77
2022/10/15 09:13:09;;;;;;;;;;;;;;;;;;8444418;28;27231;-76
2022/10/15 09:17:09;;;;;;;;;;;;;;;;;;8416456;28;28166;-77
2022/10/15 09:21:10;;;;;;;;;;;;;;;;;;8403050;28;28329;-75
2022/10/15 09:25:10;;;;;;;;;;;;;;;;;;8413602;27;27786;-77
2022/10/15 09:29:10;;;;;;;;;;;;;;;;;;8413611;28;27829;-75
2022/10/15 09:33:10;;;;;;;;;;;;;;;;;;8410561;28;29669;-76
2022/10/15 09:37:10;;;;;;;;;;;;;;;;;;8420133;28;27342;-77
2022/10/15 09:41:15;;;;;;;;;;;;;;;;;;8421513;28;27145;-77
2022/10/15 09:45:15;;;;;;;;;;;;;;;;;;8421322;28;28046;-75
2022/10/15 09:49:18;;;;;;;;;;;;;;;;;;8404079;28;28610;-75
2022/10/15 09:53:18;;;;;;;;;;;;;;;;;;8416119;27;28253;-77
2022/10/15 09:57:18;;;;;;;;;;;;;;;;;;8407620;28;28263;-76
2022/10/15 10:01:18;;;;;;;;;;;;;;;;;;8404586;28;28171;-77
2022/10/15 10:05:19;;;;;;;;;;;;;;;;;;8410088;28;27620;-76
2022/10/15 10:09:19;;;;;;;;;;;;;;;;;;8422317;27;28531;-75
2022/10/15 10:13:19;;;;;;;;;;;;;;;;;;8413158;28;27539;-77
2022/10/15 10:17:19;;;;;;;;;;;;;;;;;;8414959;28;28281;-76
2022/10/15 10:21:20;;;;;;;;;;;;;;;;;;8420084;28;28556;-78
2022/10/15 10:25:20;;;;;;;;;;;;;;;;;;8415738;28;28243;-78
2022/10/15 10:29:20;;;;;;;;;;;;;;;;;;8416834;28;28762;-76
2022/10/15 10:33:20;;;;;;;;;;;;;;;;;;8420080;27;27611;-77
2022/10/15 10:37:21;;;;;;;;;;;;;;;;;;8420229;28;27730;-78
2022/10/15 10:41:21;;;;;;;;;;;;;;;;;;8413157;27;27355;-75
2022/10/15 10:45:21;;;;;;;;;;;;;;;;;;8429551;27;28268;-77
2022/10/15 10:49:21;;;;;;;;;;;;;;;;;;8417661;27;28420;-77
2022/10/15 10:53:21;;;;;;;;;;;;;;;;;;8418334;27;28129;-76
2022/10/15 10:57:25;;;;;;;;;;;;;;;;;;8416153;28;27282;-77
2022/10/15 11:01:25;;;;;;;;;;;;;;;;;;8419659;28;27131;-77
2022/10/15 11:05:25;;;;;;;;;;;;;;;;;;8413975;28;28126;-77
2022/10/15 11:09:25;;;;;;;;;;;;;;;;;;8410128;27;27564;-77
2022/10/15 11:13:26;;;;;;;;;;;;;;;;;;8412517;27;27443;-78
2022/10/15 11:17:26;;;;;;;;;;;;;;;;;;8411475;27;28841;-76
2022/10/15 11:21:26;;;;;;;;;;;;;;;;;;8400122;28;28517;-78
2022/10/15 11:25:26;;;;;;;;;;;;;;;;;;8403455;28;29580;-78
2022/10/15 11:29:26;;;;;;;;;;;;;;;;;;8410404;27;28519;-76
2022/10/15 11:33:26;;;;;;;;;;;;;;;;;;8430714;27;28648;-77
2022/10/15 11:37:27;;;;;;;;;;;;;;;;;;8415568;28;27832;-78
2022/10/15 11:41:27;;;;;;;;;;;;;;;;;;8417735;28;27174;-78
2022/10/15 11:45:27;;;;;;;;;;;;;;;;;;8411746;27;28937;-76
2022/10/15 11:49:27;;;;;;;;;;;;;;;;;;8414661;28;27471;-77
2022/10/15 11:53:30;;;;;;;;;;;;;;;;;;8432447;27;28366;-77
2022/10/15 11:57:31;;;;;;;;;;;;;;;;;;8411642;27;27425;-77
2022/10/15 12:01:31;;;;;;;;;;;;;;;;;;8410712;28;27421;-77
2022/10/15 12:05:31;;;;;;;;;;;;;;;;;;8396815;28;28455;-75
2022/10/15 12:09:31;;;;;;;;;;;;;;;;;;8412032;27;28183;-76
2022/10/15 12:13:31;;;;;;;;;;;;;;;;;;8396727;28;28354;-77
2022/10/15 12:17:31;;;;;;;;;;;;;;;;;;8412909;28;27383;-76
2022/10/15 12:21:32;;;;;;;;;;;;;;;;;;8407322;27;28546;-77
2022/10/15 12:25:32;;;;;;;;;;;;;;;;;;8427442;27;28725;-77
2022/10/15 12:29:32;;;;;;;;;;;;;;;;;;8406582;28;28195;-77
2022/10/15 12:33:33;;;;;;;;;;;;;;;;;;8412914;28;29149;-78
2022/10/15 12:37:36;;;;;;;;;;;;;;;;;;8418341;28;28478;-78
2022/10/15 12:41:36;;;;;;;;;;;;;;;;;;8396469;28;28669;-78
2022/10/15 12:45:36;;;;;;;;;;;;;;;;;;8407743;27;27199;-78
2022/10/15 12:49:36;;;;;;;;;;;;;;;;;;8397650;28;28407;-77
2022/10/15 12:53:37;;;;;;;;;;;;;;;;;;8407774;27;28607;-76
2022/10/15 12:57:37;;;;;;;;;;;;;;;;;;8410074;28;28189;-77
2022/10/15 13:01:37;;;;;;;;;;;;;;;;;;8413742;28;28003;-77
2022/10/15 13:05:37;;;;;;;;;;;;;;;;;;8415830;27;27846;-78
2022/10/15 13:09:38;;;;;;;;;;;;;;;;;;8412601;27;27697;-79
2022/10/15 13:13:38;;;;;;;;;;;;;;;;;;8409797;28;27320;-78
2022/10/15 13:17:38;;;;;;;;;;;;;;;;;;8405340;28;28464;-78
2022/10/15 13:21:38;;;;;;;;;;;;;;;;;;8410603;27;27459;-79
2022/10/15 13:25:38;;;;;;;;;;;;;;;;;;8425447;27;28878;-78
2022/10/15 13:29:38;;;;;;;;;;;;;;;;;;8414036;27;27523;-78
2022/10/15 13:33:39;;;;;;;;;;;;;;;;;;8411650;28;27583;-77
2022/10/15 13:37:39;;;;;;;;;;;;;;;;;;8404454;28;27418;-78
2022/10/15 13:41:39;;;;;;;;;;;;;;;;;;8409175;28;27586;-78
2022/10/15 13:45:39;;;;;;;;;;;;;;;;;;8410352;28;27849;-79
2022/10/15 13:49:39;;;;;;;;;;;;;;;;;;8407126;28;28519;-77
2022/10/15 13:53:39;;;;;;;;;;;;;;;;;;8407582;28;28228;-76
2022/10/15 13:57:39;;;;;;;;;;;;;;;;;;8411663;27;28270;-78
2022/10/15 14:01:40;;;;;;;;;;;;;;;;;;8408931;28;28482;-78
2022/10/15 14:05:40;;;;;;;;;;;;;;;;;;8406232;28;27543;-77
2022/10/15 14:09:41;;;;;;;;;;;;;;;;;;8406123;27;27534;-79
2022/10/15 14:13:41;;;;;;;;;;;;;;;;;;8433957;27;28184;-78
2022/10/15 14:17:41;;;;;;;;;;;;;;;;;;8420289;27;27237;-79
2022/10/15 14:21:41;;;;;;;;;;;;;;;;;;8425085;27;28423;-78
2022/10/15 14:25:41;;;;;;;;;;;;;;;;;;8428134;28;28186;-80
2022/10/15 14:29:41;;;;;;;;;;;;;;;;;;8429306;28;27248;-78
2022/10/15 14:33:42;;;;;;;;;;;;;;;;;;8425207;27;27802;-77
2022/10/15 14:37:42;;;;;;;;;;;;;;;;;;8433128;27;28696;-77
2022/10/15 14:41:42;;;;;;;;;;;;;;;;;;8425815;28;28345;-79
2022/10/15 14:45:42;;;;;;;;;;;;;;;;;;8406491;27;28442;-77
2022/10/15 14:49:42;;;;;;;;;;;;;;;;;;8413318;27;29085;-76
2022/10/15 14:53:42;;;;;;;;;;;;;;;;;;8406675;27;29522;-77
2022/10/15 14:57:42;;;;;;;;;;;;;;;;;;8398363;27;29283;-78
2022/10/15 15:01:43;;;;;;;;;;;;;;;;;;8413852;27;28106;-77
2022/10/15 15:05:43;;;;;;;;;;;;;;;;;;8409423;27;28200;-78
2022/10/15 15:09:43;;;;;;;;;;;;;;;;;;8406751;27;28346;-77
2022/10/15 15:13:43;;;;;;;;;;;;;;;;;;8407302;27;28170;-77
2022/10/15 15:17:43;;;;;;;;;;;;;;;;;;8410872;27;28189;-77
2022/10/15 15:21:44;;;;;;;;;;;;;;;;;;8409581;27;28717;-77
2022/10/15 15:25:44;;;;;;;;;;;;;;;;;;8403418;27;28289;-78
2022/10/15 15:29:44;;;;;;;;;;;;;;;;;;8391396;28;28504;-79
2022/10/15 15:33:44;;;;;;;;;;;;;;;;;;8403202;27;28482;-76
2022/10/15 15:37:44;;;;;;;;;;;;;;;;;;8410178;28;27355;-76
2022/10/15 15:41:45;;;;;;;;;;;;;;;;;;8407567;27;28472;-77
2022/10/15 15:45:45;;;;;;;;;;;;;;;;;;8424763;27;28810;-76
2022/10/15 15:49:45;;;;;;;;;;;;;;;;;;8408534;28;27211;-76
2022/10/15 15:53:45;;;;;;;;;;;;;;;;;;8396326;28;28611;-78
2022/10/15 15:57:45;;;;;;;;;;;;;;;;;;8406738;28;28147;-77
2022/10/15 16:01:45;;;;;;;;;;;;;;;;;;8406683;28;27308;-79
2022/10/15 16:05:48;;;;;;;;;;;;;;;;;;8423943;27;28647;-79
2022/10/15 16:09:48;;;;;;;;;;;;;;;;;;8394143;28;28758;-76
2022/10/15 16:13:48;;;;;;;;;;;;;;;;;;8394127;28;28343;-75
2022/10/15 16:17:48;;;;;;;;;;;;;;;;;;8394279;28;28505;-77
2022/10/15 16:21:48;;;;;;;;;;;;;;;;;;8398517;28;28300;-78
2022/10/15 16:25:49;;;;;;;;;;;;;;;;;;8400233;27;28989;-78
2022/10/15 16:29:49;;;;;;;;;;;;;;;;;;8407624;28;27806;-76
2022/10/15 16:33:49;;;;;;;;;;;;;;;;;;8405772;28;27543;-76
2022/10/15 16:37:52;;;;;;;;;;;;;;;;;;8406861;28;27587;-78
2022/10/15 16:41:52;;;;;;;;;;;;;;;;;;8407299;27;27340;-77
2022/10/15 16:45:53;;;;;;;;;;;;;;;;;;8391714;28;28562;-78
2022/10/15 16:49:54;;;;;;;;;;;;;;;;;;8399333;28;28301;-77
2022/10/15 16:53:54;;;;;;;;;;;;;;;;;;8405501;27;28536;-77
2022/10/15 16:57:54;;;;;;;;;;;;;;;;;;8406357;28;28107;-77
2022/10/15 17:01:54;;;;;;;;;;;;;;;;;;8402823;28;28541;-77
2022/10/15 17:05:55;;;;;;;;;;;;;;;;;;8395680;28;27469;-78
2022/10/15 17:09:55;;;;;;;;;;;;;;;;;;8389986;28;28164;-77
2022/10/15 17:13:55;;;;;;;;;;;;;;;;;;8392386;28;28432;-77
2022/10/15 17:17:55;;;;;;;;;;;;;;;;;;8395647;28;28179;-77
2022/10/15 17:21:56;;;;;;;;;;;;;;;;;;8389054;27;28389;-78
2022/10/15 17:25:56;;;;;;;;;;;;;;;;;;8416668;27;29461;-77
2022/10/15 17:29:56;;;;;;;;;;;;;;;;;;8401980;27;27783;-77
2022/10/15 17:33:56;;;;;;;;;;;;;;;;;;8386706;28;28291;-76
2022/10/15 17:37:57;;;;;;;;;;;;;;;;;;8405173;28;28932;-76
2022/10/15 17:41:57;;;;;;;;;;;;;;;;;;8408878;27;27667;-77
2022/10/15 17:45:57;;;;;;;;;;;;;;;;;;8407845;28;28316;-77
2022/10/15 17:49:57;;;;;;;;;;;;;;;;;;8398606;28;28487;-78
2022/10/15 17:53:58;;;;;;;;;;;;;;;;;;8413439;27;28671;-77
2022/10/15 17:57:58;;;;;;;;;;;;;;;;;;8415918;28;29496;-77
2022/10/15 18:01:59;;;;;;;;;;;;;;;;;;8417920;27;27431;-77
2022/10/15 18:05:59;;;;;;;;;;;;;;;;;;8409200;27;28137;-77
2022/10/15 18:10:00;;;;;;;;;;;;;;;;;;8411063;28;28315;-78
2022/10/15 18:14:00;;;;;;;;;;;;;;;;;;8411229;28;28721;-78
2022/10/15 18:18:00;;;;;;;;;;;;;;;;;;8419265;27;27535;-77
2022/10/15 18:22:01;;;;;;;;;;;;;;;;;;8406230;27;27352;-78
2022/10/15 18:26:01;;;;;;;;;;;;;;;;;;8408617;28;28169;-78
2022/10/15 18:30:01;;;;;;;;;;;;;;;;;;8411079;28;28652;-79
2022/10/15 18:34:01;;;;;;;;;;;;;;;;;;8418710;28;27558;-78
2022/10/15 18:38:01;;;;;;;;;;;;;;;;;;8423268;27;28631;-79
2022/10/15 18:42:01;;;;;;;;;;;;;;;;;;8418086;28;27519;-78
2022/10/15 18:46:02;;;;;;;;;;;;;;;;;;8413061;28;27393;-79
2022/10/15 18:50:02;;;;;;;;;;;;;;;;;;8401609;28;28257;-78
2022/10/15 18:54:02;;;;;;;;;;;;;;;;;;8411790;27;27673;-77
2022/10/15 18:58:02;;;;;;;;;;;;;;;;;;8417266;27;27615;-78
2022/10/15 19:02:02;;;;;;;;;;;;;;;;;;8403939;28;28530;-76
2022/10/15 19:06:02;;;;;;;;;;;;;;;;;;8396551;28;28208;-77
2022/10/15 19:10:03;;;;;;;;;;;;;;;;;;8399050;28;29645;-77
2022/10/15 19:14:03;;;;;;;;;;;;;;;;;;8414063;28;29174;-78
2022/10/15 19:18:04;;;;;;;;;;;;;;;;;;8410651;27;29346;-78
2022/10/15 19:22:04;;;;;;;;;;;;;;;;;;8411351;27;28606;-78
2022/10/15 19:26:05;;;;;;;;;;;;;;;;;;8412675;28;28562;-77
2022/10/15 19:30:06;;;;;;;;;;;;;;;;;;8392849;27;29560;-79
2022/10/15 19:34:06;;;;;;;;;;;;;;;;;;8405544;28;28410;-80
2022/10/15 19:38:07;;;;;;;;;;;;;;;;;;8410689;28;27972;-78
2022/10/15 19:42:07;;;;;;;;;;;;;;;;;;8424135;28;28235;-79
2022/10/15 19:46:07;;;;;;;;;;;;;;;;;;8425536;27;27392;-78
2022/10/15 19:50:07;;;;;;;;;;;;;;;;;;8459119;27;28501;-79
2022/10/15 19:54:07;;;;;;;;;;;;;;;;;;8453696;28;27168;-79
2022/10/15 19:58:07;;;;;;;;;;;;;;;;;;8450703;27;28174;-80
2022/10/15 20:02:07;;;;;;;;;;;;;;;;;;8447809;27;27944;-78
2022/10/15 20:06:08;;;;;;;;;;;;;;;;;;8463295;27;28245;-79
2022/10/15 20:10:08;;;;;;;;;;;;;;;;;;8441379;27;28507;-77
2022/10/15 20:14:08;;;;;;;;;;;;;;;;;;8415227;27;27781;-78
2022/10/15 20:18:08;;;;;;;;;;;;;;;;;;8409825;27;29228;-77
2022/10/15 20:22:08;;;;;;;;;;;;;;;;;;8411632;28;27380;-77
2022/10/15 20:26:08;;;;;;;;;;;;;;;;;;8417268;28;27963;-76
2022/10/15 20:30:10;;;;;;;;;;;;;;;;;;8410095;28;27559;-76
2022/10/15 20:34:10;;;;;;;;;;;;;;;;;;8411212;28;28199;-77
2022/10/15 20:38:10;;;;;;;;;;;;;;;;;;8409186;27;27154;-79
2022/10/15 20:42:10;;;;;;;;;;;;;;;;;;8410123;27;27584;-78
2022/10/15 20:46:11;;;;;;;;;;;;;;;;;;8407487;27;28691;-78
2022/10/15 20:50:11;;;;;;;;;;;;;;;;;;8413659;27;27868;-78
2022/10/15 20:54:11;;;;;;;;;;;;;;;;;;8408303;27;27756;-78
2022/10/15 20:58:11;;;;;;;;;;;;;;;;;;8405300;28;29070;-77
2022/10/15 21:02:12;;;;;;;;;;;;;;;;;;8398459;28;29165;-76
2022/10/15 21:06:12;;;;;;;;;;;;;;;;;;8409853;28;28104;-76
2022/10/15 21:10:12;;;;;;;;;;;;;;;;;;8411079;28;28386;-77
2022/10/15 21:14:12;;;;;;;;;;;;;;;;;;8416305;28;27300;-78
2022/10/15 21:18:12;;;;;;;;;;;;;;;;;;8412716;28;28559;-77
2022/10/15 21:22:12;;;;;;;;;;;;;;;;;;8413357;27;27670;-77
2022/10/15 21:26:13;;;;;;;;;;;;;;;;;;8411904;27;27971;-77
2022/10/15 21:30:13;;;;;;;;;;;;;;;;;;8411732;28;28243;-76
2022/10/15 21:34:13;;;;;;;;;;;;;;;;;;8413440;28;27389;-78
2022/10/15 21:38:13;;;;;;;;;;;;;;;;;;8430201;27;28392;-76
2022/10/15 21:42:13;;;;;;;;;;;;;;;;;;8412338;28;28489;-76
2022/10/15 21:46:13;;;;;;;;;;;;;;;;;;8411892;27;27323;-77
2022/10/15 21:50:13;;;;;;;;;;;;;;;;;;8427702;27;28571;-76
2022/10/15 21:54:14;;;;;;;;;;;;;;;;;;8411556;27;27672;-78
2022/10/15 21:58:14;;;;;;;;;;;;;;;;;;8408994;28;28202;-76
2022/10/15 22:02:14;;;;;;;;;;;;;;;;;;8408705;28;28071;-75
2022/10/15 22:06:14;;;;;;;;;;;;;;;;;;8409185;28;27230;-77
2022/10/15 22:10:14;;;;;;;;;;;;;;;;;;8409388;28;27226;-76
2022/10/15 22:14:14;;;;;;;;;;;;;;;;;;8409441;28;28542;-77
2022/10/15 22:18:14;;;;;;;;;;;;;;;;;;8411375;28;28748;-77
2022/10/15 22:22:15;;;;;;;;;;;;;;;;;;8411819;28;27106;-78
2022/10/15 22:26:15;;;;;;;;;;;;;;;;;;8405525;28;27859;-78
2022/10/15 22:30:15;;;;;;;;;;;;;;;;;;8410744;27;28279;-79
2022/10/15 22:34:15;;;;;;;;;;;;;;;;;;8410779;28;27139;-78
2022/10/15 22:38:15;;;;;;;;;;;;;;;;;;8409153;27;28637;-77
2022/10/15 22:42:15;;;;;;;;;;;;;;;;;;8412303;27;28501;-78
2022/10/15 22:46:15;;;;;;;;;;;;;;;;;;8414249;27;27983;-78
2022/10/15 22:50:16;;;;;;;;;;;;;;;;;;8414034;27;27500;-78
2022/10/15 22:54:16;;;;;;;;;;;;;;;;;;8411008;27;27380;-77
2022/10/15 22:58:16;;;;;;;;;;;;;;;;;;8415352;28;27696;-78
2022/10/15 23:02:20;;;;;;;;;;;;;;;;;;8408879;28;29341;-79
2022/10/15 23:06:20;;;;;;;;;;;;;;;;;;8415070;28;28101;-78
2022/10/15 23:10:20;;;;;;;;;;;;;;;;;;8339240;27;28159;-77
2022/10/15 23:14:20;;;;;;;;;;;;;;;;;;8336941;27;28480;-78
2022/10/15 23:18:20;;;;;;;;;;;;;;;;;;8401776;27;28164;-78
2022/10/15 23:22:21;;;;;;;;;;;;;;;;;;8415910;27;29130;-78
2022/10/15 23:26:21;;;;;;;;;;;;;;;;;;8394044;27;28264;-79
2022/10/15 23:30:21;;;;;;;;;;;;;;;;;;8432458;27;28520;-77
2022/10/15 23:34:21;;;;;;;;;;;;;;;;;;8399370;27;30921;-76
2022/10/15 23:38:21;;;;;;;;;;;;;;;;;;8416205;27;27764;-78
2022/10/15 23:42:22;;;;;;;;;;;;;;;;;;8411031;27;28196;-75
2022/10/15 23:46:22;;;;;;;;;;;;;;;;;;8399268;27;29301;-75
2022/10/15 23:50:23;;;;;;;;;;;;;;;;;;8421919;27;28071;-78
2022/10/15 23:54:23;;;;;;;;;;;;;;;;;;8410765;27;27240;-76
2022/10/15 23:58:23;;;;;;;;;;;;;;;;;;8399736;27;28188;-78
